Airfield :
LOGIN :

Register | Disclaimer

   EN    FR    IT 

 










Legend :    VFR   Marginal VFR   IFR   Intensive IFR   Very Intensive IFR
Visi :
Ceiling :
>= 8 km
>= 3000ft
5 to 8 km
1000 to 3000 ft
1500m to 5 km
500 to 1000 ft
800 to 1500m
200 to 500 ft
< 800m
< 200 ft
Symbols :   Thunderstorms  Fog  Heavy snow  Heavy precipitations  Wind > 20 kt
SIGMETs :     Misc.  Thunderstorms  Icing  Turbulence  Mountain Waves  Volcanic Ashes







- Airport Elevation : 5600 ft
- IATA code : SMV


LSZS - Samedan

CURRENT METAR :
  • 241520Z 21014KT 9999 SCT048 07/02 Q1024 RMK S

EXPIRED METARs :
  • 241450Z 22007KT 9999 FEW048 09/00 Q1024 RMK R
  • 241420Z 22010KT 9999 FEW048 BKN100 08/02 Q1024 RMK Q
  • 241350Z 23009KT 9999 FEW048 BKN100 08/01 Q1024 RMK P
  • 241320Z 21005KT 9999 FEW040 BKN100 08/M01 Q1024 RMK O
  • 241250Z 21011KT 9999 FEW040 BKN100 08/00 Q1024 RMK N

TAF TAF LSZS
Valid from the 24 at 15:00 until the 25 at 00:00 UTC


241425Z 2415/2424 22008KT 9999 FEW045 BKN100 TX08/2415Z
BECMG 2417/2419 CAVOK
ATIS : +41 81 834 93 24
No reported NOTAMs for that airfield.



MET'MAP, your aeronautical weather chart ! - Copyright ORBIFLY December 2007 - Disclaimer

ORBIFLY MET'MAP TEAM :

Programming & Development : Alexandra Zaïnal
Concept & Development : Baudouin d'Aumeries
Co-Development & Prog : Marc-Olivier Méhu
Technical & hardware support : Manuel Goepfert

Contact : metmap@orbifly.com




SOURCES & CREDITS :

   NOAA